createdAt,value
2022-10-06T00:00:04.628Z,95.31
2022-10-06T00:02:34.454Z,94.74
2022-10-06T00:05:01.128Z,94.08
2022-10-06T00:07:27.632Z,94.99
2022-10-06T00:09:54.195Z,94.87
2022-10-06T00:12:20.787Z,94.24
2022-10-06T00:14:47.288Z,94.59
2022-10-06T00:17:14.209Z,94.48
2022-10-06T00:19:40.746Z,94.34
2022-10-06T00:22:07.351Z,95.05
2022-10-06T00:24:33.922Z,95.20
2022-10-06T00:27:00.847Z,94.75
2022-10-06T00:29:27.496Z,93.81
2022-10-06T00:31:54.126Z,95.14
2022-10-06T00:34:20.925Z,95.08
2022-10-06T00:36:47.578Z,95.85
2022-10-06T00:39:14.254Z,95.82
2022-10-06T00:41:40.883Z,95.07
2022-10-06T00:44:07.518Z,94.74
2022-10-06T00:46:40.614Z,94.70
2022-10-06T00:49:08.900Z,94.08
2022-10-06T00:51:36.457Z,94.78
2022-10-06T00:54:03.013Z,95.18
2022-10-06T00:56:29.580Z,95.19
2022-10-06T00:58:56.166Z,95.15
2022-10-06T01:01:23.100Z,94.78
2022-10-06T01:03:58.642Z,95.17
2022-10-06T01:06:25.132Z,95.36
2022-10-06T01:08:52.163Z,95.38
2022-10-06T01:11:19.653Z,94.64
2022-10-06T01:13:46.322Z,95.43
2022-10-06T01:16:17.255Z,94.25
2022-10-06T01:18:44.377Z,94.92
2022-10-06T01:21:25.799Z,95.39
2022-10-06T01:23:52.449Z,95.10
2022-10-06T01:26:19.500Z,94.70
2022-10-06T01:28:46.793Z,95.39
2022-10-06T01:31:13.506Z,94.48
2022-10-06T01:33:40.225Z,94.14
2022-10-06T01:36:07.255Z,95.27
2022-10-06T01:38:33.871Z,94.86
2022-10-06T01:41:00.781Z,94.40
2022-10-06T01:43:27.791Z,94.44
2022-10-06T01:45:57.757Z,95.00
2022-10-06T01:51:52.672Z,95.11
2022-10-06T01:54:19.319Z,94.84
2022-10-06T01:56:45.916Z,95.15
2022-10-06T01:59:12.509Z,95.76
2022-10-06T02:01:39.126Z,94.99
2022-10-06T02:04:05.840Z,95.07
2022-10-06T02:06:32.499Z,94.13
2022-10-06T02:09:00.338Z,95.22
2022-10-06T02:11:27.126Z,95.63
2022-10-06T02:13:53.737Z,95.61
2022-10-06T02:16:20.548Z,95.08
2022-10-06T02:18:47.206Z,95.14
2022-10-06T02:21:20.427Z,96.02
2022-10-06T02:23:47.102Z,95.11
2022-10-06T02:26:13.775Z,95.38
2022-10-06T02:28:40.371Z,94.56
2022-10-06T02:31:08.644Z,95.49
2022-10-06T02:33:35.675Z,94.49
2022-10-06T02:36:02.807Z,94.20
2022-10-06T02:38:29.985Z,94.33
2022-10-06T02:40:57.036Z,95.16
2022-10-06T02:43:23.641Z,94.21
2022-10-06T02:45:54.573Z,93.94
2022-10-06T02:48:21.378Z,95.06
2022-10-06T02:50:56.606Z,96.08
2022-10-06T02:53:23.380Z,95.56
2022-10-06T02:55:49.887Z,96.27
2022-10-06T02:58:16.571Z,95.49
2022-10-06T03:00:43.060Z,95.94
2022-10-06T03:03:09.770Z,96.31
2022-10-06T03:05:37.025Z,95.79
2022-10-06T03:08:03.716Z,95.83
2022-10-06T03:10:30.412Z,95.74
2022-10-06T03:12:57.058Z,95.58
2022-10-06T03:15:23.588Z,94.82
2022-10-06T03:17:50.205Z,95.58
2022-10-06T03:20:16.737Z,94.42
2022-10-06T03:22:43.338Z,95.93
2022-10-06T03:25:10.077Z,95.47
2022-10-06T03:27:36.703Z,94.76
2022-10-06T03:30:04.014Z,95.31
2022-10-06T03:32:30.604Z,94.24
2022-10-06T03:34:57.269Z,95.22
2022-10-06T03:37:24.239Z,96.14
2022-10-06T03:39:50.803Z,95.84
2022-10-06T03:42:17.346Z,95.33
2022-10-06T03:44:43.878Z,95.14
2022-10-06T03:47:16.117Z,94.74
2022-10-06T03:49:43.700Z,94.81
2022-10-06T03:52:10.232Z,94.44
2022-10-06T03:54:36.995Z,94.86
2022-10-06T03:57:03.624Z,95.02
2022-10-06T03:59:30.236Z,95.05
2022-10-06T04:01:56.761Z,95.11
2022-10-06T04:04:23.379Z,95.64
2022-10-06T04:06:49.941Z,94.81
2022-10-06T04:09:16.495Z,95.89
2022-10-06T04:11:43.760Z,94.87
2022-10-06T04:14:11.557Z,95.59
2022-10-06T04:16:39.801Z,95.82
2022-10-06T04:19:07.737Z,96.63
2022-10-06T04:21:34.896Z,96.32
2022-10-06T04:24:01.439Z,95.59
2022-10-06T04:26:29.905Z,95.73
2022-10-06T04:28:56.433Z,96.23
2022-10-06T04:31:27.948Z,95.79
2022-10-06T04:33:56.046Z,95.93
2022-10-06T04:36:24.427Z,96.54
2022-10-06T04:38:54.574Z,95.73
2022-10-06T04:41:21.280Z,95.26
2022-10-06T04:43:48.215Z,95.16
2022-10-06T04:46:40.874Z,95.81
2022-10-06T04:49:01.915Z,94.77
2022-10-06T04:51:28.546Z,95.67
2022-10-06T04:53:55.165Z,97.22
2022-10-06T04:56:29.166Z,95.94
2022-10-06T04:58:56.079Z,96.68
2022-10-06T05:01:26.211Z,96.91
2022-10-06T05:03:54.230Z,97.00
2022-10-06T05:06:23.165Z,96.01
2022-10-06T05:08:55.110Z,95.97
2022-10-06T05:11:25.670Z,96.14
2022-10-06T05:13:54.648Z,96.42
2022-10-06T05:16:22.844Z,96.16
2022-10-06T05:18:49.564Z,95.88
2022-10-06T05:21:17.807Z,95.45
2022-10-06T05:23:44.475Z,96.61
2022-10-06T05:26:12.347Z,95.42
2022-10-06T05:28:39.064Z,96.86
2022-10-06T05:31:12.675Z,96.02
2022-10-06T05:33:39.443Z,95.45
2022-10-06T05:36:07.734Z,96.39
2022-10-06T05:38:34.277Z,96.29
2022-10-06T05:41:04.848Z,95.60
2022-10-06T05:43:31.892Z,96.60
2022-10-06T05:46:00.294Z,97.11
2022-10-06T05:48:28.148Z,96.95
2022-10-06T05:51:05.790Z,96.64
2022-10-06T05:53:33.466Z,96.70
2022-10-06T05:56:09.901Z,97.29
2022-10-06T05:58:37.997Z,97.84
2022-10-06T06:01:11.742Z,97.58
2022-10-06T06:03:39.255Z,97.30
2022-10-06T06:06:24.784Z,97.03
2022-10-06T06:08:57.238Z,97.79
2022-10-06T06:11:24.709Z,96.73
2022-10-06T06:13:58.327Z,96.53
2022-10-06T06:16:25.210Z,96.92
2022-10-06T06:18:51.844Z,96.86
2022-10-06T06:21:18.718Z,97.03
2022-10-06T06:23:46.166Z,97.27
2022-10-06T06:26:14.408Z,97.13
2022-10-06T06:28:41.238Z,97.58
2022-10-06T06:31:16.199Z,98.00
2022-10-06T06:33:45.925Z,97.23
2022-10-06T06:36:28.823Z,98.01
2022-10-06T06:38:56.937Z,98.14
2022-10-06T06:41:28.428Z,97.70
2022-10-06T06:43:55.432Z,97.26
2022-10-06T06:46:23.748Z,98.02
2022-10-06T06:48:51.679Z,97.58
2022-10-06T06:51:18.333Z,98.40
2022-10-06T06:53:45.749Z,97.81
2022-10-06T06:56:12.542Z,97.96
2022-10-06T06:58:39.234Z,98.51
2022-10-06T07:01:10.649Z,98.99
2022-10-06T07:03:57.676Z,98.33
2022-10-06T07:06:27.835Z,100.00
2022-10-06T07:08:54.892Z,100.00
2022-10-06T07:11:32.678Z,100.00
2022-10-06T07:14:00.821Z,100.00
2022-10-06T07:16:28.034Z,100.00
2022-10-06T07:18:54.556Z,100.00
2022-10-06T07:21:21.172Z,100.00
2022-10-06T07:23:48.434Z,100.00
2022-10-06T07:26:15.086Z,100.00
2022-10-06T07:28:41.693Z,100.00
2022-10-06T07:31:08.432Z,99.46
2022-10-06T07:33:35.032Z,98.55
2022-10-06T07:36:02.602Z,97.50
2022-10-06T07:38:29.185Z,97.29
2022-10-06T07:41:17.868Z,96.84
2022-10-06T07:43:43.196Z,96.46
2022-10-06T07:46:12.082Z,94.95
2022-10-06T07:48:39.540Z,93.98
2022-10-06T07:51:13.382Z,92.15
2022-10-06T07:53:40.071Z,89.63
2022-10-06T07:56:07.449Z,87.22
2022-10-06T07:58:34.193Z,87.69
2022-10-06T08:01:11.600Z,87.08
2022-10-06T08:03:38.499Z,86.81
2022-10-06T08:06:05.257Z,86.83
2022-10-06T08:08:33.171Z,86.12
2022-10-06T08:11:01.634Z,80.21
2022-10-06T08:13:28.460Z,78.49
2022-10-06T08:15:55.126Z,74.95
2022-10-06T08:18:44.507Z,74.35
2022-10-06T08:21:18.873Z,70.80
2022-10-06T08:23:49.901Z,68.46
2022-10-06T08:26:17.788Z,68.74
2022-10-06T08:28:54.386Z,63.76
2022-10-06T08:31:21.887Z,66.29
2022-10-06T08:33:48.687Z,67.15
2022-10-06T08:36:17.115Z,64.84
2022-10-06T08:38:43.697Z,61.78
2022-10-06T08:41:20.047Z,63.65
2022-10-06T08:43:49.381Z,65.28
2022-10-06T08:46:17.807Z,63.48
2022-10-06T08:48:46.481Z,62.91
2022-10-06T08:51:30.137Z,61.45
2022-10-06T08:54:14.875Z,58.92
2022-10-06T08:56:53.498Z,57.72
2022-10-06T08:59:20.139Z,58.06
2022-10-06T09:01:47.802Z,55.65
2022-10-06T09:04:24.340Z,55.32
2022-10-06T09:06:56.574Z,53.65
2022-10-06T09:09:44.794Z,53.61
2022-10-06T09:12:20.437Z,52.91
2022-10-06T09:14:48.211Z,53.24
2022-10-06T09:17:34.093Z,51.97
2022-10-06T09:20:05.742Z,52.27
2022-10-06T09:22:32.342Z,54.51
2022-10-06T09:25:20.853Z,50.76
2022-10-06T09:27:49.790Z,53.33
2022-10-06T09:30:17.474Z,50.53
2022-10-06T09:32:46.078Z,50.73
2022-10-06T09:35:22.602Z,49.30
2022-10-06T09:37:57.992Z,49.73
2022-10-06T09:40:34.525Z,50.86
2022-10-06T09:43:01.416Z,50.76
2022-10-06T09:45:28.037Z,50.05
2022-10-06T09:47:54.936Z,50.56
2022-10-06T09:50:26.067Z,49.92
2022-10-06T09:52:58.746Z,50.79
2022-10-06T09:55:25.802Z,49.86
2022-10-06T09:57:53.264Z,49.90
2022-10-06T10:00:47.429Z,49.76
2022-10-06T10:03:14.175Z,49.27
2022-10-06T10:05:48.605Z,49.80
2022-10-06T10:08:24.975Z,49.78
2022-10-06T10:11:11.682Z,48.33
2022-10-06T10:13:42.672Z,48.99
2022-10-06T10:16:09.394Z,48.09
2022-10-06T10:18:36.231Z,50.27
2022-10-06T10:21:03.968Z,49.90
2022-10-06T10:23:32.333Z,47.34
2022-10-06T10:26:01.772Z,50.11
2022-10-06T10:28:58.575Z,50.79
2022-10-06T10:32:02.290Z,53.25
2022-10-06T10:34:52.443Z,52.93
2022-10-06T10:37:31.042Z,54.25
2022-10-06T10:39:57.612Z,54.40
2022-10-06T10:42:31.529Z,55.57
2022-10-06T10:45:02.306Z,58.58
2022-10-06T10:47:31.519Z,57.87
2022-10-06T10:50:18.563Z,57.88
2022-10-06T10:52:46.667Z,60.05
2022-10-06T10:55:17.977Z,56.95
2022-10-06T10:57:44.700Z,58.47
2022-10-06T11:00:19.641Z,60.00
2022-10-06T11:02:46.630Z,60.70
2022-10-06T11:05:26.735Z,60.58
2022-10-06T11:08:33.957Z,60.74
2022-10-06T11:11:01.880Z,60.48
2022-10-06T11:13:37.351Z,58.57
2022-10-06T11:16:22.417Z,60.34
2022-10-06T11:19:13.815Z,58.64
2022-10-06T11:21:55.981Z,60.02
2022-10-06T11:24:31.113Z,59.17
2022-10-06T11:27:22.536Z,60.41
2022-10-06T11:29:58.167Z,60.25
2022-10-06T11:33:03.120Z,60.52
2022-10-06T11:35:34.335Z,61.26
2022-10-06T11:38:45.477Z,63.46
2022-10-06T11:41:23.659Z,64.61
2022-10-06T11:44:10.766Z,64.50
2022-10-06T11:46:46.175Z,64.88
2022-10-06T11:49:31.148Z,65.63
2022-10-06T11:52:08.208Z,64.70
2022-10-06T11:54:47.966Z,65.42
2022-10-06T11:57:30.303Z,64.14
2022-10-06T12:00:05.699Z,64.49
2022-10-06T12:02:32.285Z,64.88
2022-10-06T12:05:55.313Z,65.28
2022-10-06T12:08:00.494Z,66.37
2022-10-06T12:10:29.930Z,66.97
2022-10-06T12:14:01.225Z,65.94
2022-10-06T12:19:26.164Z,66.79
2022-10-06T12:22:15.802Z,67.48
2022-10-06T12:25:14.608Z,66.76
2022-10-06T12:28:20.163Z,67.81
2022-10-06T12:31:25.094Z,65.99
2022-10-06T12:33:51.746Z,66.85
2022-10-06T12:36:20.371Z,66.68
2022-10-06T12:39:02.084Z,65.94
2022-10-06T12:42:05.987Z,65.86
2022-10-06T12:44:35.427Z,65.69
2022-10-06T12:47:03.670Z,67.60
2022-10-06T12:49:50.929Z,67.75
2022-10-06T12:52:34.292Z,66.58
2022-10-06T12:55:28.056Z,67.23
2022-10-06T12:57:54.642Z,66.92
2022-10-06T13:00:31.558Z,65.87
2022-10-06T13:02:58.177Z,66.30
2022-10-06T13:05:24.824Z,67.27
2022-10-06T13:07:59.229Z,66.76
2022-10-06T13:10:26.408Z,64.44
2022-10-06T13:12:53.003Z,65.63
2022-10-06T13:15:29.564Z,66.63
2022-10-06T13:18:14.996Z,66.37
2022-10-06T13:20:53.286Z,66.17
2022-10-06T13:23:33.075Z,67.10
2022-10-06T13:26:00.827Z,67.90
2022-10-06T13:28:31.071Z,67.64
2022-10-06T13:30:59.519Z,67.40
2022-10-06T13:33:29.106Z,66.96
2022-10-06T13:35:55.771Z,67.45
2022-10-06T13:38:22.415Z,68.64
2022-10-06T13:41:13.816Z,68.64
2022-10-06T13:43:43.327Z,68.97
2022-10-06T13:46:10.882Z,68.97
2022-10-06T13:48:37.780Z,68.95
2022-10-06T13:51:04.704Z,68.21
2022-10-06T13:53:31.984Z,68.11
2022-10-06T13:55:58.701Z,68.94
2022-10-06T13:58:26.501Z,69.03
2022-10-06T14:00:57.565Z,68.07
2022-10-06T14:03:28.767Z,68.28
2022-10-06T14:06:15.444Z,68.71
2022-10-06T14:08:42.017Z,69.60
2022-10-06T14:11:08.677Z,70.28
2022-10-06T14:13:51.502Z,69.56
2022-10-06T14:16:20.125Z,69.22
2022-10-06T14:18:59.727Z,68.62
2022-10-06T14:24:24.225Z,68.63
2022-10-06T14:26:50.903Z,68.65
2022-10-06T14:29:17.722Z,68.67
2022-10-06T14:31:44.914Z,69.12
2022-10-06T14:34:18.144Z,68.55
2022-10-06T14:36:47.064Z,69.38
2022-10-06T14:39:14.465Z,68.85
2022-10-06T14:41:41.034Z,69.26
2022-10-06T14:44:08.453Z,69.62
2022-10-06T14:46:35.412Z,69.03
2022-10-06T14:49:06.464Z,69.38
2022-10-06T14:51:36.590Z,69.79
2022-10-06T14:54:03.744Z,69.61
2022-10-06T14:56:31.613Z,68.83
2022-10-06T14:59:02.625Z,69.46
2022-10-06T15:01:29.288Z,70.44
2022-10-06T15:03:59.498Z,69.33
2022-10-06T15:06:26.313Z,69.88
2022-10-06T15:08:53.673Z,70.47
2022-10-06T15:11:20.708Z,70.35
2022-10-06T15:13:47.444Z,69.90
2022-10-06T15:16:17.467Z,70.39
2022-10-06T15:18:44.347Z,70.27
2022-10-06T15:21:11.013Z,70.38
2022-10-06T15:23:38.138Z,70.77
2022-10-06T15:26:04.874Z,70.28
2022-10-06T15:28:31.535Z,70.57
2022-10-06T15:30:58.361Z,70.71
2022-10-06T15:33:25.182Z,71.38
2022-10-06T15:36:14.704Z,71.18
2022-10-06T15:38:41.337Z,71.87
2022-10-06T15:41:08.053Z,72.33
2022-10-06T15:43:34.794Z,72.84
2022-10-06T15:46:01.593Z,72.87
2022-10-06T15:48:28.238Z,73.35
2022-10-06T15:50:54.869Z,73.36
2022-10-06T15:53:21.509Z,73.43
2022-10-06T15:55:48.172Z,74.69
2022-10-06T15:58:14.847Z,74.51
2022-10-06T16:00:41.522Z,74.37
2022-10-06T16:03:08.165Z,75.08
2022-10-06T16:05:34.885Z,75.49
2022-10-06T16:08:01.558Z,76.50
2022-10-06T16:10:29.774Z,77.65
2022-10-06T16:12:56.477Z,78.47
2022-10-06T16:15:23.188Z,79.04
2022-10-06T16:17:49.892Z,79.20
2022-10-06T16:20:16.561Z,79.40
2022-10-06T16:22:43.511Z,80.01
2022-10-06T16:25:10.102Z,80.58
2022-10-06T16:27:36.682Z,81.62
2022-10-06T16:30:03.484Z,82.79
2022-10-06T16:32:30.541Z,82.86
2022-10-06T16:34:57.234Z,82.87
2022-10-06T16:37:24.293Z,82.78
2022-10-06T16:39:50.890Z,84.54
2022-10-06T16:42:17.593Z,84.44
2022-10-06T16:44:44.272Z,83.95
2022-10-06T16:47:11.002Z,85.10
2022-10-06T16:49:37.691Z,85.99
2022-10-06T16:52:04.482Z,85.75
2022-10-06T16:54:31.183Z,87.08
2022-10-06T16:56:57.795Z,86.98
2022-10-06T16:59:24.397Z,87.08
2022-10-06T17:01:50.978Z,87.47
2022-10-06T17:04:22.254Z,88.40
2022-10-06T17:06:50.524Z,87.92
2022-10-06T17:09:21.369Z,87.84
2022-10-06T17:11:52.208Z,87.50
2022-10-06T17:14:19.136Z,88.18
2022-10-06T17:16:46.421Z,87.63
2022-10-06T17:19:13.781Z,88.07
2022-10-06T17:21:46.312Z,88.83
2022-10-06T17:24:13.814Z,88.98
2022-10-06T17:26:41.721Z,88.72
2022-10-06T17:29:12.326Z,88.95
2022-10-06T17:31:40.502Z,89.09
2022-10-06T17:34:08.945Z,89.09
2022-10-06T17:36:35.647Z,88.91
2022-10-06T17:39:02.573Z,89.86
2022-10-06T17:41:33.484Z,89.75
2022-10-06T17:44:01.935Z,89.84
2022-10-06T17:46:28.695Z,89.64
2022-10-06T17:48:55.506Z,90.45
2022-10-06T17:51:26.168Z,89.81
2022-10-06T17:53:53.601Z,90.57
2022-10-06T17:56:22.563Z,90.46
2022-10-06T17:58:56.297Z,90.05
2022-10-06T18:01:24.632Z,89.70
2022-10-06T18:03:52.575Z,90.35
2022-10-06T18:06:19.194Z,90.84
2022-10-06T18:08:45.950Z,91.47
2022-10-06T18:11:14.014Z,91.25
2022-10-06T18:13:40.712Z,91.75
2022-10-06T18:16:20.730Z,91.75
2022-10-06T18:18:48.499Z,90.85
2022-10-06T18:21:15.156Z,90.99
2022-10-06T18:23:41.801Z,90.22
2022-10-06T18:26:08.679Z,91.12
2022-10-06T18:28:35.471Z,91.83
2022-10-06T18:31:02.188Z,91.67
2022-10-06T18:36:15.677Z,91.07
2022-10-06T18:38:44.328Z,90.16
2022-10-06T18:41:13.197Z,91.71
2022-10-06T18:43:39.778Z,92.83
2022-10-06T18:46:06.513Z,91.09
2022-10-06T18:48:33.196Z,90.73
2022-10-06T18:51:00.900Z,90.62
2022-10-06T18:53:27.605Z,92.37
2022-10-06T18:55:54.246Z,92.82
2022-10-06T18:58:20.825Z,92.37
2022-10-06T19:00:47.396Z,93.11
2022-10-06T19:03:14.068Z,92.91
2022-10-06T19:05:48.207Z,91.64
2022-10-06T19:08:14.756Z,91.33
2022-10-06T19:10:41.343Z,91.79
2022-10-06T19:13:07.936Z,91.21
2022-10-06T19:15:34.568Z,91.38
2022-10-06T19:18:01.184Z,91.58
2022-10-06T19:20:27.759Z,91.50
2022-10-06T19:22:54.329Z,91.82
2022-10-06T19:25:21.003Z,91.91
2022-10-06T19:27:47.525Z,92.32
2022-10-06T19:30:14.140Z,92.01
2022-10-06T19:32:40.734Z,91.53
2022-10-06T19:35:10.289Z,91.17
2022-10-06T19:37:37.511Z,92.20
2022-10-06T19:40:04.403Z,92.32
2022-10-06T19:42:31.326Z,91.83
2022-10-06T19:44:57.951Z,92.82
2022-10-06T19:47:24.532Z,93.09
2022-10-06T19:49:52.190Z,92.68
2022-10-06T19:52:20.448Z,91.96
2022-10-06T19:54:47.088Z,92.12
2022-10-06T19:57:13.705Z,92.92
2022-10-06T19:59:40.345Z,92.76
2022-10-06T20:02:07.209Z,91.24
2022-10-06T20:04:33.876Z,91.45
2022-10-06T20:07:00.528Z,91.08
2022-10-06T20:09:27.418Z,92.24
2022-10-06T20:11:54.148Z,92.39
2022-10-06T20:14:22.500Z,92.60
2022-10-06T20:16:50.483Z,92.29
2022-10-06T20:19:17.916Z,92.34
2022-10-06T20:21:44.509Z,91.83
2022-10-06T20:24:18.529Z,92.30
2022-10-06T20:26:45.529Z,93.45
2022-10-06T20:29:12.761Z,93.88
2022-10-06T20:31:41.095Z,92.38
2022-10-06T20:34:08.621Z,92.04
2022-10-06T20:36:35.763Z,92.43
2022-10-06T20:39:02.415Z,93.04
2022-10-06T20:41:29.094Z,92.33
2022-10-06T20:43:56.900Z,92.18
2022-10-06T20:46:24.979Z,92.01
2022-10-06T20:48:51.595Z,92.04
2022-10-06T20:51:18.321Z,92.88
2022-10-06T20:53:45.100Z,92.69
2022-10-06T20:56:11.687Z,93.01
2022-10-06T20:58:38.295Z,92.64
2022-10-06T21:01:11.375Z,92.57
2022-10-06T21:03:43.348Z,92.51
2022-10-06T21:06:10.725Z,93.63
2022-10-06T21:08:37.452Z,93.23
2022-10-06T21:11:04.293Z,92.31
2022-10-06T21:13:31.085Z,91.46
2022-10-06T21:15:58.542Z,92.70
2022-10-06T21:18:25.354Z,92.82
2022-10-06T21:20:59.129Z,91.96
2022-10-06T21:23:26.814Z,93.22
2022-10-06T21:25:53.988Z,93.49
2022-10-06T21:28:21.010Z,93.24
2022-10-06T21:30:47.725Z,92.78
2022-10-06T21:33:14.614Z,92.54
2022-10-06T21:35:41.344Z,92.94
2022-10-06T21:38:11.159Z,92.64
2022-10-06T21:40:37.904Z,92.57
2022-10-06T21:43:05.008Z,93.92
2022-10-06T21:45:33.123Z,93.77
2022-10-06T21:48:01.186Z,93.73
2022-10-06T21:50:27.915Z,93.29
2022-10-06T21:52:54.736Z,93.78
2022-10-06T21:55:21.441Z,93.96
2022-10-06T21:57:48.146Z,93.94
2022-10-06T22:00:15.075Z,94.35
2022-10-06T22:02:41.868Z,93.25
2022-10-06T22:05:08.787Z,92.69
2022-10-06T22:07:35.629Z,92.44
2022-10-06T22:10:02.356Z,93.38
2022-10-06T22:12:29.264Z,91.85
2022-10-06T22:14:56.000Z,93.13
2022-10-06T22:17:23.279Z,92.81
2022-10-06T22:19:50.380Z,92.54
2022-10-06T22:22:17.016Z,92.54
2022-10-06T22:24:43.739Z,92.51
2022-10-06T22:27:10.444Z,92.55
2022-10-06T22:29:37.188Z,93.01
2022-10-06T22:32:03.953Z,94.11
2022-10-06T22:34:30.688Z,93.44
2022-10-06T22:36:57.429Z,94.11
2022-10-06T22:39:24.155Z,93.21
2022-10-06T22:41:50.912Z,92.79
2022-10-06T22:44:18.180Z,93.13
2022-10-06T22:46:45.029Z,94.39
2022-10-06T22:49:11.891Z,93.39
2022-10-06T22:51:38.613Z,93.89
2022-10-06T22:54:05.325Z,93.74
2022-10-06T22:56:32.767Z,93.71
2022-10-06T22:59:00.075Z,93.77
2022-10-06T23:01:28.333Z,94.06
2022-10-06T23:03:55.383Z,93.33
2022-10-06T23:06:22.676Z,93.25
2022-10-06T23:08:49.397Z,93.59
2022-10-06T23:11:17.953Z,94.51
2022-10-06T23:13:44.664Z,94.59
2022-10-06T23:16:15.423Z,95.01
2022-10-06T23:18:42.676Z,94.01
2022-10-06T23:21:13.836Z,94.20
2022-10-06T23:23:40.614Z,93.43
2022-10-06T23:26:09.149Z,93.33
2022-10-06T23:28:35.907Z,93.87
2022-10-06T23:31:04.246Z,94.69
2022-10-06T23:33:31.212Z,94.97
2022-10-06T23:36:01.956Z,94.73
2022-10-06T23:38:28.656Z,93.45
2022-10-06T23:40:55.485Z,94.04
2022-10-06T23:43:22.559Z,94.14
2022-10-06T23:45:49.338Z,93.63
2022-10-06T23:48:16.309Z,93.95
2022-10-06T23:50:43.168Z,93.93
2022-10-06T23:53:09.924Z,93.46
2022-10-06T23:55:36.655Z,94.47
2022-10-06T23:58:03.457Z,94.35
